sensor_id;sensor_type;location;lat;lon;timestamp;pressure;altitude;pressure_sealevel;temperature;humidity
70468;BME280;57934;51.532;7.684;2023-07-30T00:00:22;99716.09;;;17.25;nan
70468;BME280;57934;51.532;7.684;2023-07-30T00:02:48;99721.41;;;17.20;nan
70468;BME280;57934;51.532;7.684;2023-07-30T00:05:14;99716.09;;;17.25;nan
70468;BME280;57934;51.532;7.684;2023-07-30T00:07:40;99729.13;;;17.22;nan
70468;BME280;57934;51.532;7.684;2023-07-30T00:10:07;99723.69;;;17.11;nan
70468;BME280;57934;51.532;7.684;2023-07-30T00:12:33;99722.13;;;17.15;nan
70468;BME280;57934;51.532;7.684;2023-07-30T00:14:59;99724.88;;;17.21;nan
70468;BME280;57934;51.532;7.684;2023-07-30T00:17:25;99725.84;;;17.14;nan
70468;BME280;57934;51.532;7.684;2023-07-30T00:19:51;99731.69;;;17.11;nan
70468;BME280;57934;51.532;7.684;2023-07-30T00:22:17;99722.81;;;17.06;nan
70468;BME280;57934;51.532;7.684;2023-07-30T00:24:43;99729.41;;;16.98;nan
70468;BME280;57934;51.532;7.684;2023-07-30T00:27:09;99719.81;;;16.97;nan
70468;BME280;57934;51.532;7.684;2023-07-30T00:29:35;99723.41;;;16.86;nan
70468;BME280;57934;51.532;7.684;2023-07-30T00:32:01;99726.06;;;16.86;nan
70468;BME280;57934;51.532;7.684;2023-07-30T00:34:27;99729.78;;;16.85;nan
70468;BME280;57934;51.532;7.684;2023-07-30T00:36:53;99724.69;;;16.83;nan
70468;BME280;57934;51.532;7.684;2023-07-30T00:39:19;99727.06;;;16.80;nan
70468;BME280;57934;51.532;7.684;2023-07-30T00:41:46;99727.38;;;16.83;nan
70468;BME280;57934;51.532;7.684;2023-07-30T00:44:12;99728.78;;;16.91;nan
70468;BME280;57934;51.532;7.684;2023-07-30T00:46:39;99721.16;;;16.78;nan
70468;BME280;57934;51.532;7.684;2023-07-30T00:49:06;99722.00;;;16.78;nan
70468;BME280;57934;51.532;7.684;2023-07-30T00:51:33;99719.88;;;16.80;nan
70468;BME280;57934;51.532;7.684;2023-07-30T00:54:00;99726.75;;;16.76;nan
70468;BME280;57934;51.532;7.684;2023-07-30T00:56:26;99729.72;;;16.80;nan
70468;BME280;57934;51.532;7.684;2023-07-30T00:58:54;99731.16;;;16.70;nan
70468;BME280;57934;51.532;7.684;2023-07-30T01:01:20;99735.00;;;16.58;nan
70468;BME280;57934;51.532;7.684;2023-07-30T01:03:47;99735.56;;;16.60;nan
70468;BME280;57934;51.532;7.684;2023-07-30T01:06:14;99734.59;;;16.49;nan
70468;BME280;57934;51.532;7.684;2023-07-30T01:08:40;99738.50;;;16.41;nan
70468;BME280;57934;51.532;7.684;2023-07-30T01:11:06;99740.97;;;16.26;nan
70468;BME280;57934;51.532;7.684;2023-07-30T01:13:33;99742.50;;;16.22;nan
70468;BME280;57934;51.532;7.684;2023-07-30T01:16:00;99752.09;;;16.23;nan
70468;BME280;57934;51.532;7.684;2023-07-30T01:18:26;99749.59;;;16.16;nan
70468;BME280;57934;51.532;7.684;2023-07-30T01:20:53;99753.78;;;16.12;nan
70468;BME280;57934;51.532;7.684;2023-07-30T01:23:19;99757.34;;;16.01;nan
70468;BME280;57934;51.532;7.684;2023-07-30T01:25:47;99750.22;;;16.07;nan
70468;BME280;57934;51.532;7.684;2023-07-30T01:28:19;99750.16;;;16.02;nan
70468;BME280;57934;51.532;7.684;2023-07-30T01:30:46;99757.56;;;15.99;nan
70468;BME280;57934;51.532;7.684;2023-07-30T01:33:14;99759.34;;;15.94;nan
70468;BME280;57934;51.532;7.684;2023-07-30T01:35:41;99764.25;;;15.85;nan
70468;BME280;57934;51.532;7.684;2023-07-30T01:38:09;99763.19;;;15.86;nan
70468;BME280;57934;51.532;7.684;2023-07-30T01:40:36;99768.03;;;15.89;nan
70468;BME280;57934;51.532;7.684;2023-07-30T01:43:02;99762.88;;;15.83;nan
70468;BME280;57934;51.532;7.684;2023-07-30T01:45:28;99765.72;;;15.76;nan
70468;BME280;57934;51.532;7.684;2023-07-30T01:47:54;99773.84;;;15.69;nan
70468;BME280;57934;51.532;7.684;2023-07-30T01:50:20;99772.31;;;15.62;nan
70468;BME280;57934;51.532;7.684;2023-07-30T01:52:46;99769.88;;;15.72;nan
70468;BME280;57934;51.532;7.684;2023-07-30T01:55:12;99767.72;;;15.69;nan
70468;BME280;57934;51.532;7.684;2023-07-30T01:57:38;99772.91;;;15.64;nan
70468;BME280;57934;51.532;7.684;2023-07-30T02:00:05;99767.97;;;15.56;nan
70468;BME280;57934;51.532;7.684;2023-07-30T02:02:31;99768.53;;;15.58;nan
70468;BME280;57934;51.532;7.684;2023-07-30T02:04:57;99771.56;;;15.49;nan
70468;BME280;57934;51.532;7.684;2023-07-30T02:07:23;99773.09;;;15.45;nan
70468;BME280;57934;51.532;7.684;2023-07-30T02:09:49;99784.28;;;15.47;nan
70468;BME280;57934;51.532;7.684;2023-07-30T02:12:15;99773.91;;;15.46;nan
70468;BME280;57934;51.532;7.684;2023-07-30T02:14:41;99773.66;;;15.47;nan
70468;BME280;57934;51.532;7.684;2023-07-30T02:17:07;99775.66;;;15.40;nan
70468;BME280;57934;51.532;7.684;2023-07-30T02:19:33;99768.25;;;15.42;nan
70468;BME280;57934;51.532;7.684;2023-07-30T02:21:59;99774.47;;;15.48;nan
70468;BME280;57934;51.532;7.684;2023-07-30T02:24:27;99769.88;;;15.43;nan
70468;BME280;57934;51.532;7.684;2023-07-30T02:26:53;99775.09;;;15.38;nan
70468;BME280;57934;51.532;7.684;2023-07-30T02:29:19;99770.72;;;15.32;nan
70468;BME280;57934;51.532;7.684;2023-07-30T02:31:45;99775.31;;;15.37;nan
70468;BME280;57934;51.532;7.684;2023-07-30T02:34:11;99775.22;;;15.32;nan
70468;BME280;57934;51.532;7.684;2023-07-30T02:36:37;99777.31;;;15.30;nan
70468;BME280;57934;51.532;7.684;2023-07-30T02:39:03;99764.94;;;15.35;nan
70468;BME280;57934;51.532;7.684;2023-07-30T02:41:29;99776.50;;;15.29;nan
70468;BME280;57934;51.532;7.684;2023-07-30T02:43:55;99775.38;;;15.25;nan
70468;BME280;57934;51.532;7.684;2023-07-30T02:46:21;99772.00;;;15.30;nan
70468;BME280;57934;51.532;7.684;2023-07-30T02:48:47;99775.84;;;15.22;nan
70468;BME280;57934;51.532;7.684;2023-07-30T02:51:13;99782.41;;;15.19;nan
70468;BME280;57934;51.532;7.684;2023-07-30T02:53:39;99790.38;;;15.31;nan
70468;BME280;57934;51.532;7.684;2023-07-30T02:56:05;99778.97;;;15.19;nan
70468;BME280;57934;51.532;7.684;2023-07-30T02:58:31;99781.72;;;15.24;nan
70468;BME280;57934;51.532;7.684;2023-07-30T03:01:05;99777.44;;;15.23;nan
70468;BME280;57934;51.532;7.684;2023-07-30T03:03:31;99786.13;;;15.18;nan
70468;BME280;57934;51.532;7.684;2023-07-30T03:05:57;99786.59;;;15.15;nan
70468;BME280;57934;51.532;7.684;2023-07-30T03:08:23;99782.41;;;15.19;nan
70468;BME280;57934;51.532;7.684;2023-07-30T03:10:49;99789.16;;;15.10;nan
70468;BME280;57934;51.532;7.684;2023-07-30T03:13:15;99787.69;;;15.02;nan
70468;BME280;57934;51.532;7.684;2023-07-30T03:15:41;99787.09;;;15.00;nan
70468;BME280;57934;51.532;7.684;2023-07-30T03:18:07;99785.38;;;15.06;nan
70468;BME280;57934;51.532;7.684;2023-07-30T03:20:33;99790.34;;;14.91;nan
70468;BME280;57934;51.532;7.684;2023-07-30T03:22:59;99786.09;;;14.90;nan
70468;BME280;57934;51.532;7.684;2023-07-30T03:25:25;99788.28;;;14.93;nan
70468;BME280;57934;51.532;7.684;2023-07-30T03:27:51;99783.66;;;15.00;nan
70468;BME280;57934;51.532;7.684;2023-07-30T03:30:18;99790.09;;;15.04;nan
70468;BME280;57934;51.532;7.684;2023-07-30T03:32:44;99789.09;;;14.93;nan
70468;BME280;57934;51.532;7.684;2023-07-30T03:35:10;99786.38;;;15.05;nan
70468;BME280;57934;51.532;7.684;2023-07-30T03:37:36;99788.38;;;14.98;nan
70468;BME280;57934;51.532;7.684;2023-07-30T03:40:05;99786.84;;;15.02;nan
70468;BME280;57934;51.532;7.684;2023-07-30T03:42:31;99784.34;;;14.95;nan
70468;BME280;57934;51.532;7.684;2023-07-30T03:44:57;99792.78;;;14.92;nan
70468;BME280;57934;51.532;7.684;2023-07-30T03:47:23;99796.38;;;14.86;nan
70468;BME280;57934;51.532;7.684;2023-07-30T03:49:49;99795.66;;;14.91;nan
70468;BME280;57934;51.532;7.684;2023-07-30T03:52:15;99797.16;;;14.87;nan
70468;BME280;57934;51.532;7.684;2023-07-30T03:54:43;99795.09;;;14.89;nan
70468;BME280;57934;51.532;7.684;2023-07-30T03:57:09;99790.34;;;14.91;nan
70468;BME280;57934;51.532;7.684;2023-07-30T03:59:35;99789.78;;;14.89;nan
70468;BME280;57934;51.532;7.684;2023-07-30T04:02:01;99796.94;;;14.88;nan
70468;BME280;57934;51.532;7.684;2023-07-30T04:04:27;99790.47;;;14.84;nan
70468;BME280;57934;51.532;7.684;2023-07-30T04:06:53;99799.13;;;14.79;nan
70468;BME280;57934;51.532;7.684;2023-07-30T04:09:19;99794.50;;;14.87;nan
70468;BME280;57934;51.532;7.684;2023-07-30T04:11:45;99796.69;;;14.90;nan
70468;BME280;57934;51.532;7.684;2023-07-30T04:14:11;99805.47;;;14.90;nan
70468;BME280;57934;51.532;7.684;2023-07-30T04:16:37;99806.06;;;14.92;nan
70468;BME280;57934;51.532;7.684;2023-07-30T04:19:03;99802.81;;;14.90;nan
70468;BME280;57934;51.532;7.684;2023-07-30T04:21:29;99806.16;;;14.97;nan
70468;BME280;57934;51.532;7.684;2023-07-30T04:23:55;99813.44;;;14.90;nan
70468;BME280;57934;51.532;7.684;2023-07-30T04:26:21;99810.66;;;14.97;nan
70468;BME280;57934;51.532;7.684;2023-07-30T04:28:47;99813.19;;;15.03;nan
70468;BME280;57934;51.532;7.684;2023-07-30T04:31:14;99811.84;;;14.89;nan
70468;BME280;57934;51.532;7.684;2023-07-30T04:33:40;99814.69;;;14.88;nan
70468;BME280;57934;51.532;7.684;2023-07-30T04:36:07;99806.53;;;14.89;nan
70468;BME280;57934;51.532;7.684;2023-07-30T04:38:33;99805.69;;;15.00;nan
70468;BME280;57934;51.532;7.684;2023-07-30T04:41:00;99813.19;;;15.03;nan
70468;BME280;57934;51.532;7.684;2023-07-30T04:43:27;99812.47;;;15.08;nan
70468;BME280;57934;51.532;7.684;2023-07-30T04:45:56;99817.16;;;15.30;nan
70468;BME280;57934;51.532;7.684;2023-07-30T04:48:23;99809.94;;;15.13;nan
70468;BME280;57934;51.532;7.684;2023-07-30T04:50:49;99811.97;;;15.23;nan
70468;BME280;57934;51.532;7.684;2023-07-30T04:53:15;99810.16;;;15.12;nan
70468;BME280;57934;51.532;7.684;2023-07-30T04:55:43;99820.94;;;15.34;nan
70468;BME280;57934;51.532;7.684;2023-07-30T04:58:09;99808.06;;;15.25;nan
70468;BME280;57934;51.532;7.684;2023-07-30T05:00:36;99816.94;;;15.31;nan
70468;BME280;57934;51.532;7.684;2023-07-30T05:03:02;99808.06;;;15.25;nan
70468;BME280;57934;51.532;7.684;2023-07-30T05:05:28;99813.22;;;15.32;nan
70468;BME280;57934;51.532;7.684;2023-07-30T05:07:54;99809.72;;;15.43;nan
70468;BME280;57934;51.532;7.684;2023-07-30T05:10:20;99807.19;;;15.48;nan
70468;BME280;57934;51.532;7.684;2023-07-30T05:12:46;99812.56;;;15.54;nan
70468;BME280;57934;51.532;7.684;2023-07-30T05:15:12;99808.06;;;15.66;nan
70468;BME280;57934;51.532;7.684;2023-07-30T05:17:38;99808.13;;;15.71;nan
70468;BME280;57934;51.532;7.684;2023-07-30T05:20:05;99803.41;;;15.90;nan
70468;BME280;57934;51.532;7.684;2023-07-30T05:22:31;99800.53;;;16.08;nan
70468;BME280;57934;51.532;7.684;2023-07-30T05:24:57;99805.94;;;16.13;nan
70468;BME280;57934;51.532;7.684;2023-07-30T05:27:23;99803.59;;;16.17;nan
70468;BME280;57934;51.532;7.684;2023-07-30T05:29:49;99806.34;;;16.05;nan
70468;BME280;57934;51.532;7.684;2023-07-30T05:32:15;99808.53;;;16.08;nan
70468;BME280;57934;51.532;7.684;2023-07-30T05:34:41;99812.78;;;16.09;nan
70468;BME280;57934;51.532;7.684;2023-07-30T05:37:08;99817.53;;;16.24;nan
70468;BME280;57934;51.532;7.684;2023-07-30T05:39:34;99822.75;;;16.53;nan
70468;BME280;57934;51.532;7.684;2023-07-30T05:42:00;99823.97;;;16.79;nan
70468;BME280;57934;51.532;7.684;2023-07-30T05:44:26;99823.72;;;16.80;nan
70468;BME280;57934;51.532;7.684;2023-07-30T05:46:52;99822.75;;;16.86;nan
70468;BME280;57934;51.532;7.684;2023-07-30T05:49:19;99817.28;;;16.76;nan
70468;BME280;57934;51.532;7.684;2023-07-30T05:51:45;99819.63;;;16.56;nan
70468;BME280;57934;51.532;7.684;2023-07-30T05:54:12;99821.81;;;16.76;nan
70468;BME280;57934;51.532;7.684;2023-07-30T05:56:38;99816.63;;;16.52;nan
70468;BME280;57934;51.532;7.684;2023-07-30T05:59:04;99822.75;;;16.86;nan
70468;BME280;57934;51.532;7.684;2023-07-30T06:01:30;99831.31;;;16.72;nan
70468;BME280;57934;51.532;7.684;2023-07-30T06:03:56;99826.94;;;16.65;nan
70468;BME280;57934;51.532;7.684;2023-07-30T06:06:22;99829.03;;;16.63;nan
70468;BME280;57934;51.532;7.684;2023-07-30T06:08:53;99825.59;;;16.46;nan
70468;BME280;57934;51.532;7.684;2023-07-30T06:11:20;99821.97;;;16.52;nan
70468;BME280;57934;51.532;7.684;2023-07-30T06:13:46;99831.63;;;16.58;nan
70468;BME280;57934;51.532;7.684;2023-07-30T06:16:13;99826.31;;;16.58;nan
70468;BME280;57934;51.532;7.684;2023-07-30T06:18:39;99835.84;;;16.71;nan
70468;BME280;57934;51.532;7.684;2023-07-30T06:21:05;99829.88;;;16.64;nan
70468;BME280;57934;51.532;7.684;2023-07-30T06:23:31;99825.56;;;16.63;nan
70468;BME280;57934;51.532;7.684;2023-07-30T06:25:57;99837.44;;;16.72;nan
70468;BME280;57934;51.532;7.684;2023-07-30T06:28:23;99840.59;;;16.86;nan
70468;BME280;57934;51.532;7.684;2023-07-30T06:30:50;99844.22;;;16.80;nan
70468;BME280;57934;51.532;7.684;2023-07-30T06:33:16;99839.19;;;16.66;nan
70468;BME280;57934;51.532;7.684;2023-07-30T06:35:42;99843.50;;;16.67;nan
70468;BME280;57934;51.532;7.684;2023-07-30T06:38:08;99848.03;;;16.50;nan
70468;BME280;57934;51.532;7.684;2023-07-30T06:40:34;99851.81;;;16.71;nan
70468;BME280;57934;51.532;7.684;2023-07-30T06:43:00;99848.91;;;16.56;nan
70468;BME280;57934;51.532;7.684;2023-07-30T06:45:26;99849.69;;;16.56;nan
70468;BME280;57934;51.532;7.684;2023-07-30T06:47:52;99855.19;;;16.66;nan
70468;BME280;57934;51.532;7.684;2023-07-30T06:50:18;99852.63;;;16.38;nan
70468;BME280;57934;51.532;7.684;2023-07-30T06:52:44;99861.88;;;16.52;nan
70468;BME280;57934;51.532;7.684;2023-07-30T06:55:10;99857.78;;;16.28;nan
70468;BME280;57934;51.532;7.684;2023-07-30T06:57:37;99859.22;;;16.35;nan
70468;BME280;57934;51.532;7.684;2023-07-30T07:00:03;99861.66;;;16.37;nan
70468;BME280;57934;51.532;7.684;2023-07-30T07:02:30;99863.91;;;16.45;nan
70468;BME280;57934;51.532;7.684;2023-07-30T07:04:56;99864.88;;;16.39;nan
70468;BME280;57934;51.532;7.684;2023-07-30T07:07:22;99869.06;;;16.52;nan
70468;BME280;57934;51.532;7.684;2023-07-30T07:09:48;99875.91;;;16.31;nan
70468;BME280;57934;51.532;7.684;2023-07-30T07:12:14;99869.94;;;16.23;nan
70468;BME280;57934;51.532;7.684;2023-07-30T07:14:40;99876.81;;;16.36;nan
70468;BME280;57934;51.532;7.684;2023-07-30T07:17:08;99873.09;;;16.20;nan
70468;BME280;57934;51.532;7.684;2023-07-30T07:19:34;99874.53;;;16.28;nan
70468;BME280;57934;51.532;7.684;2023-07-30T07:22:05;99867.31;;;16.40;nan
70468;BME280;57934;51.532;7.684;2023-07-30T07:24:31;99875.69;;;16.32;nan
70468;BME280;57934;51.532;7.684;2023-07-30T07:26:57;99881.16;;;16.26;nan
70468;BME280;57934;51.532;7.684;2023-07-30T07:29:24;99879.69;;;16.18;nan
70468;BME280;57934;51.532;7.684;2023-07-30T07:31:50;99884.47;;;16.33;nan
70468;BME280;57934;51.532;7.684;2023-07-30T07:34:16;99880.69;;;16.45;nan
70468;BME280;57934;51.532;7.684;2023-07-30T07:36:42;99894.22;;;16.27;nan
70468;BME280;57934;51.532;7.684;2023-07-30T07:39:08;99892.31;;;16.39;nan
70468;BME280;57934;51.532;7.684;2023-07-30T07:41:34;99896.88;;;16.27;nan
70468;BME280;57934;51.532;7.684;2023-07-30T07:44:00;99897.03;;;16.20;nan
70468;BME280;57934;51.532;7.684;2023-07-30T07:46:26;99898.97;;;16.42;nan
70468;BME280;57934;51.532;7.684;2023-07-30T07:48:53;99893.28;;;16.33;nan
70468;BME280;57934;51.532;7.684;2023-07-30T07:51:19;99901.44;;;16.43;nan
70468;BME280;57934;51.532;7.684;2023-07-30T07:53:45;99904.38;;;16.30;nan
70468;BME280;57934;51.532;7.684;2023-07-30T07:56:11;99903.75;;;16.40;nan
70468;BME280;57934;51.532;7.684;2023-07-30T07:58:37;99901.66;;;16.42;nan
70468;BME280;57934;51.532;7.684;2023-07-30T08:01:03;99913.25;;;16.53;nan
70468;BME280;57934;51.532;7.684;2023-07-30T08:03:29;99900.59;;;16.60;nan
70468;BME280;57934;51.532;7.684;2023-07-30T08:05:55;99904.19;;;16.82;nan
70468;BME280;57934;51.532;7.684;2023-07-30T08:08:21;99912.72;;;16.84;nan
70468;BME280;57934;51.532;7.684;2023-07-30T08:10:47;99911.84;;;16.79;nan
70468;BME280;57934;51.532;7.684;2023-07-30T08:13:14;99906.19;;;16.58;nan
70468;BME280;57934;51.532;7.684;2023-07-30T08:15:40;99904.09;;;16.94;nan
70468;BME280;57934;51.532;7.684;2023-07-30T08:18:06;99898.59;;;16.67;nan
70468;BME280;57934;51.532;7.684;2023-07-30T08:20:33;99902.38;;;16.88;nan
70468;BME280;57934;51.532;7.684;2023-07-30T08:22:59;99896.97;;;17.00;nan
70468;BME280;57934;51.532;7.684;2023-07-30T08:25:25;99906.53;;;16.96;nan
70468;BME280;57934;51.532;7.684;2023-07-30T08:27:51;99905.84;;;17.05;nan
70468;BME280;57934;51.532;7.684;2023-07-30T08:30:17;99904.88;;;16.94;nan
70468;BME280;57934;51.532;7.684;2023-07-30T08:32:43;99896.91;;;16.94;nan
70468;BME280;57934;51.532;7.684;2023-07-30T08:35:10;99893.69;;;17.31;nan
70468;BME280;57934;51.532;7.684;2023-07-30T08:37:36;99903.59;;;16.97;nan
70468;BME280;57934;51.532;7.684;2023-07-30T08:40:02;99908.75;;;17.04;nan
70468;BME280;57934;51.532;7.684;2023-07-30T08:42:29;99908.91;;;17.14;nan
70468;BME280;57934;51.532;7.684;2023-07-30T08:44:55;99909.06;;;17.07;nan
70468;BME280;57934;51.532;7.684;2023-07-30T08:47:21;99904.19;;;17.21;nan
70468;BME280;57934;51.532;7.684;2023-07-30T08:49:48;99900.81;;;17.09;nan
70468;BME280;57934;51.532;7.684;2023-07-30T08:52:16;99896.13;;;17.16;nan
70468;BME280;57934;51.532;7.684;2023-07-30T08:54:44;99907.63;;;17.16;nan
70468;BME280;57934;51.532;7.684;2023-07-30T08:57:12;99900.81;;;17.09;nan
70468;BME280;57934;51.532;7.684;2023-07-30T08:59:51;99906.59;;;17.01;nan
70468;BME280;57934;51.532;7.684;2023-07-30T09:02:29;99911.09;;;17.00;nan
70468;BME280;57934;51.532;7.684;2023-07-30T09:04:58;99912.38;;;17.14;nan
70468;BME280;57934;51.532;7.684;2023-07-30T09:07:25;99920.69;;;17.18;nan
70468;BME280;57934;51.532;7.684;2023-07-30T09:09:51;99927.69;;;17.24;nan
70468;BME280;57934;51.532;7.684;2023-07-30T09:12:18;99928.81;;;17.28;nan
70468;BME280;57934;51.532;7.684;2023-07-30T09:14:46;99923.38;;;17.62;nan
70468;BME280;57934;51.532;7.684;2023-07-30T09:17:20;99924.50;;;17.66;nan
70468;BME280;57934;51.532;7.684;2023-07-30T09:19:46;99930.06;;;18.08;nan
70468;BME280;57934;51.532;7.684;2023-07-30T09:22:28;99916.09;;;18.28;nan
70468;BME280;57934;51.532;7.684;2023-07-30T09:24:54;99912.44;;;19.09;nan
70468;BME280;57934;51.532;7.684;2023-07-30T09:27:22;99917.28;;;19.65;nan
70468;BME280;57934;51.532;7.684;2023-07-30T09:29:53;99917.13;;;20.02;nan
70468;BME280;57934;51.532;7.684;2023-07-30T09:32:20;99925.16;;;19.92;nan
70468;BME280;57934;51.532;7.684;2023-07-30T09:34:46;99924.13;;;20.08;nan
70468;BME280;57934;51.532;7.684;2023-07-30T09:37:13;99926.13;;;19.65;nan
70468;BME280;57934;51.532;7.684;2023-07-30T09:39:40;99930.59;;;20.43;nan
70468;BME280;57934;51.532;7.684;2023-07-30T09:42:06;99937.28;;;21.02;nan
70468;BME280;57934;51.532;7.684;2023-07-30T09:44:32;99928.09;;;21.28;nan
70468;BME280;57934;51.532;7.684;2023-07-30T09:47:02;99941.72;;;22.07;nan
70468;BME280;57934;51.532;7.684;2023-07-30T09:49:38;99941.97;;;22.84;nan
70468;BME280;57934;51.532;7.684;2023-07-30T09:52:10;99936.28;;;22.61;nan
70468;BME280;57934;51.532;7.684;2023-07-30T09:54:37;99936.44;;;22.75;nan
70468;BME280;57934;51.532;7.684;2023-07-30T09:57:05;99942.47;;;21.68;nan
70468;BME280;57934;51.532;7.684;2023-07-30T09:59:32;99946.09;;;21.12;nan
70468;BME280;57934;51.532;7.684;2023-07-30T10:02:00;99947.75;;;20.78;nan
70468;BME280;57934;51.532;7.684;2023-07-30T10:04:26;99948.41;;;21.60;nan
70468;BME280;57934;51.532;7.684;2023-07-30T10:06:57;99945.53;;;21.31;nan
70468;BME280;57934;51.532;7.684;2023-07-30T10:09:29;99944.13;;;21.54;nan
70468;BME280;57934;51.532;7.684;2023-07-30T10:11:57;99950.47;;;21.78;nan
70468;BME280;57934;51.532;7.684;2023-07-30T10:14:25;99941.31;;;22.34;nan
70468;BME280;57934;51.532;7.684;2023-07-30T10:16:56;99932.53;;;24.44;nan
70468;BME280;57934;51.532;7.684;2023-07-30T10:19:28;99930.13;;;25.36;nan
70468;BME280;57934;51.532;7.684;2023-07-30T10:24:40;99931.63;;;25.14;nan
70468;BME280;57934;51.532;7.684;2023-07-30T10:27:08;99932.28;;;25.61;nan
70468;BME280;57934;51.532;7.684;2023-07-30T10:29:35;99931.53;;;26.33;nan
70468;BME280;57934;51.532;7.684;2023-07-30T10:32:05;99933.75;;;27.07;nan
70468;BME280;57934;51.532;7.684;2023-07-30T10:34:46;99933.50;;;26.86;nan
70468;BME280;57934;51.532;7.684;2023-07-30T10:37:20;99923.00;;;26.40;nan
70468;BME280;57934;51.532;7.684;2023-07-30T10:39:50;99923.13;;;27.20;nan
70468;BME280;57934;51.532;7.684;2023-07-30T10:42:16;99926.47;;;26.54;nan
70468;BME280;57934;51.532;7.684;2023-07-30T10:44:44;99922.03;;;26.00;nan
70468;BME280;57934;51.532;7.684;2023-07-30T10:47:11;99924.13;;;26.25;nan
70468;BME280;57934;51.532;7.684;2023-07-30T10:49:41;99925.66;;;26.54;nan
70468;BME280;57934;51.532;7.684;2023-07-30T10:52:09;99926.97;;;26.87;nan
70468;BME280;57934;51.532;7.684;2023-07-30T10:54:36;99922.50;;;26.38;nan
70468;BME280;57934;51.532;7.684;2023-07-30T10:57:03;99914.50;;;25.46;nan
70468;BME280;57934;51.532;7.684;2023-07-30T10:59:36;99925.66;;;24.52;nan
70468;BME280;57934;51.532;7.684;2023-07-30T11:02:03;99921.63;;;25.15;nan
70468;BME280;57934;51.532;7.684;2023-07-30T11:04:33;99914.53;;;25.33;nan
70468;BME280;57934;51.532;7.684;2023-07-30T11:07:00;99920.81;;;26.28;nan
70468;BME280;57934;51.532;7.684;2023-07-30T11:09:27;99920.06;;;26.50;nan
70468;BME280;57934;51.532;7.684;2023-07-30T11:11:55;99918.44;;;27.43;nan
70468;BME280;57934;51.532;7.684;2023-07-30T11:14:22;99913.72;;;27.74;nan
70468;BME280;57934;51.532;7.684;2023-07-30T11:16:57;99920.66;;;27.32;nan
70468;BME280;57934;51.532;7.684;2023-07-30T11:19:27;99913.88;;;25.77;nan
70468;BME280;57934;51.532;7.684;2023-07-30T11:21:55;99919.69;;;25.57;nan
70468;BME280;57934;51.532;7.684;2023-07-30T11:24:33;99922.81;;;24.62;nan
70468;BME280;57934;51.532;7.684;2023-07-30T11:27:00;99916.16;;;24.03;nan
70468;BME280;57934;51.532;7.684;2023-07-30T11:29:27;99924.06;;;23.75;nan
70468;BME280;57934;51.532;7.684;2023-07-30T11:31:56;99918.41;;;23.53;nan
70468;BME280;57934;51.532;7.684;2023-07-30T11:34:23;99931.56;;;22.77;nan
70468;BME280;57934;51.532;7.684;2023-07-30T11:36:49;99924.81;;;22.06;nan
70468;BME280;57934;51.532;7.684;2023-07-30T11:39:16;99926.50;;;21.92;nan
70468;BME280;57934;51.532;7.684;2023-07-30T11:41:42;99926.09;;;23.41;nan
70468;BME280;57934;51.532;7.684;2023-07-30T11:44:08;99920.88;;;24.30;nan
70468;BME280;57934;51.532;7.684;2023-07-30T11:46:36;99925.66;;;24.98;nan
70468;BME280;57934;51.532;7.684;2023-07-30T11:49:14;99923.97;;;25.03;nan
70468;BME280;57934;51.532;7.684;2023-07-30T11:51:41;99931.72;;;24.06;nan
70468;BME280;57934;51.532;7.684;2023-07-30T11:54:07;99930.06;;;24.10;nan
70468;BME280;57934;51.532;7.684;2023-07-30T11:56:43;99916.50;;;24.34;nan
70468;BME280;57934;51.532;7.684;2023-07-30T11:59:09;99922.13;;;24.19;nan
70468;BME280;57934;51.532;7.684;2023-07-30T12:01:36;99927.03;;;25.29;nan
70468;BME280;57934;51.532;7.684;2023-07-30T12:04:04;99924.00;;;25.16;nan
70468;BME280;57934;51.532;7.684;2023-07-30T12:06:46;99923.97;;;24.56;nan
70468;BME280;57934;51.532;7.684;2023-07-30T12:09:21;99921.16;;;23.72;nan
70468;BME280;57934;51.532;7.684;2023-07-30T12:11:57;99918.31;;;23.39;nan
70468;BME280;57934;51.532;7.684;2023-07-30T12:14:25;99913.94;;;23.43;nan
70468;BME280;57934;51.532;7.684;2023-07-30T12:16:56;99914.63;;;22.48;nan
70468;BME280;57934;51.532;7.684;2023-07-30T12:19:22;99913.75;;;22.81;nan
70468;BME280;57934;51.532;7.684;2023-07-30T12:21:49;99922.63;;;22.53;nan
70468;BME280;57934;51.532;7.684;2023-07-30T12:24:15;99931.31;;;22.45;nan
70468;BME280;57934;51.532;7.684;2023-07-30T12:26:41;99930.81;;;22.37;nan
70468;BME280;57934;51.532;7.684;2023-07-30T12:29:07;99935.88;;;22.00;nan
70468;BME280;57934;51.532;7.684;2023-07-30T12:31:34;99930.50;;;22.44;nan
70468;BME280;57934;51.532;7.684;2023-07-30T12:34:00;99926.84;;;21.80;nan
70468;BME280;57934;51.532;7.684;2023-07-30T12:36:26;99946.00;;;22.13;nan
70468;BME280;57934;51.532;7.684;2023-07-30T12:38:53;99920.38;;;22.36;nan
70468;BME280;57934;51.532;7.684;2023-07-30T12:41:21;99936.81;;;22.24;nan
70468;BME280;57934;51.532;7.684;2023-07-30T12:43:55;99925.16;;;22.39;nan
70468;BME280;57934;51.532;7.684;2023-07-30T12:46:25;99928.53;;;22.10;nan
70468;BME280;57934;51.532;7.684;2023-07-30T12:48:56;99936.34;;;21.62;nan
70468;BME280;57934;51.532;7.684;2023-07-30T12:51:22;99926.75;;;21.36;nan
70468;BME280;57934;51.532;7.684;2023-07-30T12:53:48;99914.72;;;21.18;nan
70468;BME280;57934;51.532;7.684;2023-07-30T12:56:15;99923.88;;;21.07;nan
70468;BME280;57934;51.532;7.684;2023-07-30T12:58:41;99924.38;;;21.19;nan
70468;BME280;57934;51.532;7.684;2023-07-30T13:01:07;99929.66;;;21.44;nan
70468;BME280;57934;51.532;7.684;2023-07-30T13:03:33;99944.84;;;21.80;nan
70468;BME280;57934;51.532;7.684;2023-07-30T13:06:00;99937.88;;;21.74;nan
70468;BME280;57934;51.532;7.684;2023-07-30T13:08:26;99938.69;;;22.24;nan
70468;BME280;57934;51.532;7.684;2023-07-30T13:10:52;99932.00;;;22.21;nan
70468;BME280;57934;51.532;7.684;2023-07-30T13:13:18;99932.13;;;21.96;nan
70468;BME280;57934;51.532;7.684;2023-07-30T13:15:44;99933.06;;;21.65;nan
70468;BME280;57934;51.532;7.684;2023-07-30T13:18:10;99938.19;;;21.62;nan
70468;BME280;57934;51.532;7.684;2023-07-30T13:20:36;99931.28;;;22.05;nan
70468;BME280;57934;51.532;7.684;2023-07-30T13:23:02;99920.56;;;22.00;nan